LFBT

Tarbes-Lourdes-Pyrénées Airport

Airport
ICAO code
LFBT
IATA Code
LDE
Summary
ICAO Region
EUR
ICAO Territory
Location

Ossun, Midi-Pyrenees

Serving
Tarbes
Elevation
1259 ft
Coordinates
43° 10' 57" N , 0° 0' 15" W
KCC
Airport WX
Fog
Metar
Observation
LFBT 030300Z AUTO 00000KT 9000 OVC043 04/03 Q1009 TEMPO 4000 BR BKN004
Station
Tarbes Ossun Lourdes
Date/Time
2022-12-03 03:00:00
Wind direction
Wind speed
00 kts
Lowest cloud amount
overcast
Temperature
4°C
Dew point
3°C
Humidity
93%
QNH
1009 hPa
Weather condition
n/a

Description

International airport serving Tarbes.

Climatology

Temperate Marine climate/Oceanic climate (Köppen climate classification Cfb). Moderately cool summer and comparatively warm winter. Prevailing south-westerly winds from the Atlantic Ocean.

Runways

Designator Length Width Surface Rops
2/20 3000 45 ASP Yes/Yes

Airport map

Aerial View

Airport accidents

SKYbrary Partners:

Safety knowledge contributed by: